METAR Reports

 

EHEH - Eindhoven Airport, Eindhoven, NL
Distance from station: W 30km
Updated: 24/04/2018 14:25
Zwaar bewolkt
Zwaar bewolkt
 Wind van ZW
Wind: ZW 20 km/h
Temperatuur: 14°C
Dauwpunt: 9°C
Vochtigheid: 72%
Barometer: 1016 hPa
Clouds: Zwaar bewolkt
Visibility: 10 km
Cloud details: Few Clouds 610 m
Meestal bewolkt 701 m
Zwaar bewolkt 792 m
2018/04/24 12:25 EHEH 241225Z AUTO 23011KT 190V260 9999 FEW020 BKN023 OVC026 14/09 Q1016 WHT 23012KT 9999 SCT018 BKN025 BKN070
EHVK - Volkel Airoprt, Volkel, NL
Distance from station: NO 30km
Updated: 24/04/2018 14:25
Zwaar bewolkt
Zwaar bewolkt
 Wind van WZW
Wind: WZW 20 km/h
Temperatuur: 13°C
Dauwpunt: 9°C
Vochtigheid: 77%
Barometer: 1016 hPa
Clouds: Zwaar bewolkt
Visibility: 10 km
Cloud details: Meestal bewolkt 518 m
Meestal bewolkt 610 m
Zwaar bewolkt 762 m
2018/04/24 12:25 EHVK 241225Z AUTO 25011KT 220V290 9999 BKN017 BKN020 OVC025 13/09 Q1016 WHT 23012KT 9999 SCT015 BKN017
 
EHGR - Gilze-Rijen Airport, Gilze-Rijen, NL
Distance from station: W 43km
Updated: 24/04/2018 14:25
Zwaar bewolkt
Zwaar bewolkt
 Wind van WZW
Wind: WZW 13 km/h
Temperatuur: 14°C
Dauwpunt: 10°C
Vochtigheid: 77%
Barometer: 1016 hPa
Clouds: Zwaar bewolkt
Visibility: 10 km
Cloud details: Meestal bewolkt 579 m
Zwaar bewolkt 671 m
2018/04/24 12:25 EHGR 241225Z AUTO 24007KT 210V280 9999 BKN019 OVC022 14/10 Q1016 WHT 23008KT 9999 BKN020
EHBK - Maastricht-Aken Airport, Beek, NL
Distance from station: ZZO 70km
Updated: 24/04/2018 14:25
Zwaar bewolkt
Zwaar bewolkt
 Wind van ZW
Wind: ZW 22 km/h
Temperatuur: 14°C
Dauwpunt: 9°C
Vochtigheid: 72%
Barometer: 1017 hPa
Clouds: Zwaar bewolkt
Visibility: 10 km
Cloud details: Meestal bewolkt 732 m
Zwaar bewolkt 853 m
2018/04/24 12:25 EHBK 241225Z AUTO 23012KT 190V280 9999 BKN024 OVC028 14/09 Q1017 NOSIG
 
EHAM - Schiphol, Amsterdam, NL
Distance from station: NNW 115km
Updated: 24/04/2018 14:25
Gedeeltelijk bewolkt
Gedeeltelijk bewolkt
 Wind van WZW
Wind: WZW 30 km/h
Temperatuur: 14°C
Dauwpunt: 9°C
Vochtigheid: 72%
Barometer: 1015 hPa
Clouds: Gedeeltelijk bewolkt
Visibility: 10 km
Cloud details: Gedeeltelijk bewolkt 488 m
2018/04/24 12:25 EHAM 241225Z 25016KT 220V280 9999 SCT016 14/09 Q1015 NOSIG